createdAt,value
2022-08-31T00:00:15.618Z,2.42
2022-08-31T00:03:00.834Z,2.70
2022-08-31T00:05:28.274Z,3.10
2022-08-31T00:07:55.749Z,3.05
2022-08-31T00:10:32.843Z,3.30
2022-08-31T00:13:04.757Z,2.67
2022-08-31T00:15:34.634Z,2.80
2022-08-31T00:18:01.415Z,2.85
2022-08-31T00:20:33.090Z,2.65
2022-08-31T00:23:06.438Z,3.05
2022-08-31T00:25:34.607Z,2.75
2022-08-31T00:28:03.552Z,2.83
2022-08-31T00:30:31.314Z,3.25
2022-08-31T00:32:58.761Z,2.80
2022-08-31T00:35:27.482Z,2.72
2022-08-31T00:37:54.553Z,2.65
2022-08-31T00:40:21.868Z,2.97
2022-08-31T00:42:48.792Z,2.60
2022-08-31T00:45:16.137Z,2.50
2022-08-31T00:47:43.025Z,3.00
2022-08-31T00:50:12.688Z,2.72
2022-08-31T00:52:45.715Z,2.97
2022-08-31T00:55:17.766Z,2.83
2022-08-31T00:57:48.232Z,3.13
2022-08-31T01:00:18.707Z,3.05
2022-08-31T01:02:45.899Z,3.10
2022-08-31T01:05:13.616Z,3.20
2022-08-31T01:07:41.446Z,2.92
2022-08-31T01:10:09.922Z,2.47
2022-08-31T01:12:36.959Z,3.45
2022-08-31T01:15:06.643Z,2.97
2022-08-31T01:17:35.011Z,3.40
2022-08-31T01:20:32.657Z,3.35
2022-08-31T01:23:38.706Z,2.80
2022-08-31T01:26:07.059Z,3.08
2022-08-31T01:28:33.787Z,2.88
2022-08-31T01:31:18.817Z,3.30
2022-08-31T01:33:45.549Z,3.05
2022-08-31T01:36:16.076Z,2.67
2022-08-31T01:38:44.005Z,2.47
2022-08-31T01:41:13.082Z,2.92
2022-08-31T01:43:41.267Z,3.53
2022-08-31T01:46:12.597Z,2.67
2022-08-31T01:48:41.758Z,2.65
2022-08-31T01:51:12.354Z,3.40
2022-08-31T01:53:40.195Z,2.92
2022-08-31T01:56:13.750Z,2.15
2022-08-31T01:58:40.855Z,2.50
2022-08-31T02:01:15.585Z,2.30
2022-08-31T02:03:57.057Z,3.20
2022-08-31T02:06:25.234Z,3.17
2022-08-31T02:08:51.953Z,3.03
2022-08-31T02:11:19.103Z,2.90
2022-08-31T02:13:45.833Z,3.05
2022-08-31T02:16:12.514Z,3.00
2022-08-31T02:18:39.230Z,3.40
2022-08-31T02:21:06.251Z,2.97
2022-08-31T02:23:33.100Z,2.65
2022-08-31T02:26:00.489Z,3.72
2022-08-31T02:28:27.214Z,3.42
2022-08-31T02:30:54.188Z,3.20
2022-08-31T02:33:21.007Z,2.53
2022-08-31T02:35:50.295Z,3.03
2022-08-31T02:38:22.856Z,3.00
2022-08-31T02:40:51.190Z,3.40
2022-08-31T02:43:24.407Z,3.30
2022-08-31T02:45:53.602Z,3.10
2022-08-31T02:48:21.538Z,3.22
2022-08-31T02:50:51.489Z,2.92
2022-08-31T02:53:20.761Z,3.58
2022-08-31T02:55:47.833Z,3.78
2022-08-31T02:58:15.199Z,3.20
2022-08-31T03:00:47.052Z,4.50
2022-08-31T03:03:14.879Z,3.58
2022-08-31T03:05:42.262Z,3.55
2022-08-31T03:08:09.239Z,4.25
2022-08-31T03:10:36.228Z,3.97
2022-08-31T03:13:03.364Z,3.90
2022-08-31T03:15:30.214Z,3.40
2022-08-31T03:17:57.521Z,4.57
2022-08-31T03:20:26.601Z,4.15
2022-08-31T03:22:53.434Z,3.95
2022-08-31T03:25:20.162Z,2.95
2022-08-31T03:27:47.055Z,3.05
2022-08-31T03:30:17.483Z,2.83
2022-08-31T03:32:45.445Z,2.78
2022-08-31T03:35:12.891Z,2.75
2022-08-31T03:37:39.634Z,3.47
2022-08-31T03:40:08.491Z,4.45
2022-08-31T03:42:35.268Z,4.15
2022-08-31T03:45:02.963Z,3.67
2022-08-31T03:47:29.657Z,3.95
2022-08-31T03:49:57.892Z,3.60
2022-08-31T03:52:24.692Z,3.47
2022-08-31T03:54:51.338Z,4.32
2022-08-31T03:57:18.028Z,3.65
2022-08-31T03:59:44.693Z,4.47
2022-08-31T04:02:11.418Z,4.30
2022-08-31T04:04:38.194Z,4.45
2022-08-31T04:07:04.980Z,3.30
2022-08-31T04:09:31.654Z,3.83
2022-08-31T04:11:58.331Z,4.13
2022-08-31T04:14:24.996Z,3.75
2022-08-31T04:16:51.647Z,4.05
2022-08-31T04:19:20.059Z,4.50
2022-08-31T04:21:47.557Z,5.63
2022-08-31T04:24:14.283Z,3.83
2022-08-31T04:26:42.263Z,4.60
2022-08-31T04:29:13.008Z,4.75
2022-08-31T04:31:40.604Z,3.97
2022-08-31T04:34:08.529Z,3.00
2022-08-31T04:36:35.386Z,3.13
2022-08-31T04:39:04.030Z,3.60
2022-08-31T04:41:32.886Z,4.55
2022-08-31T04:44:01.728Z,4.07
2022-08-31T04:46:29.431Z,3.03
2022-08-31T04:48:57.420Z,3.22
2022-08-31T04:51:26.965Z,3.45
2022-08-31T04:53:54.486Z,3.10
2022-08-31T04:56:24.691Z,2.58
2022-08-31T04:58:54.132Z,3.58
2022-08-31T05:01:25.887Z,3.42
2022-08-31T05:06:25.648Z,3.78
2022-08-31T05:08:55.714Z,5.07
2022-08-31T05:11:25.059Z,4.90
2022-08-31T05:13:52.734Z,4.50
2022-08-31T05:16:21.102Z,4.57
2022-08-31T05:18:49.821Z,3.85
2022-08-31T05:21:19.307Z,3.08
2022-08-31T05:23:48.681Z,3.92
2022-08-31T05:26:24.770Z,3.45
2022-08-31T05:28:53.662Z,3.15
2022-08-31T05:31:21.090Z,3.42
2022-08-31T05:33:47.877Z,2.80
2022-08-31T05:36:14.934Z,3.30
2022-08-31T05:38:42.369Z,3.42
2022-08-31T05:41:10.130Z,3.70
2022-08-31T05:43:38.381Z,4.07
2022-08-31T05:46:10.324Z,4.20
2022-08-31T05:48:37.893Z,4.25
2022-08-31T05:51:06.949Z,4.07
2022-08-31T05:53:34.582Z,4.97
2022-08-31T05:56:09.907Z,3.45
2022-08-31T05:58:38.641Z,4.32
2022-08-31T06:01:23.510Z,3.70
2022-08-31T06:03:50.652Z,3.65
2022-08-31T06:06:17.802Z,3.22
2022-08-31T06:08:44.699Z,3.50
2022-08-31T06:11:15.719Z,3.60
2022-08-31T06:13:42.651Z,3.20
2022-08-31T06:16:09.789Z,3.08
2022-08-31T06:18:41.079Z,3.03
2022-08-31T06:21:10.687Z,3.00
2022-08-31T06:23:37.632Z,3.38
2022-08-31T06:26:13.121Z,3.30
2022-08-31T06:28:40.656Z,3.60
2022-08-31T06:31:20.064Z,3.55
2022-08-31T06:33:47.454Z,3.53
2022-08-31T06:36:16.997Z,3.47
2022-08-31T06:38:44.706Z,3.90
2022-08-31T06:41:17.729Z,3.38
2022-08-31T06:43:45.679Z,3.50
2022-08-31T06:46:14.164Z,3.60
2022-08-31T06:48:41.521Z,3.25
2022-08-31T06:51:09.886Z,3.42
2022-08-31T06:53:40.168Z,3.33
2022-08-31T06:56:20.552Z,3.10
2022-08-31T06:58:53.493Z,2.67
2022-08-31T07:01:35.367Z,2.67
2022-08-31T07:04:05.475Z,2.85
2022-08-31T07:06:40.852Z,2.83
2022-08-31T07:09:10.630Z,3.88
2022-08-31T07:11:44.381Z,3.00
2022-08-31T07:14:13.700Z,3.20
2022-08-31T07:16:41.712Z,3.33
2022-08-31T07:19:08.897Z,2.88
2022-08-31T07:21:47.878Z,2.97
2022-08-31T07:24:17.967Z,3.35
2022-08-31T07:26:48.551Z,3.47
2022-08-31T07:29:18.223Z,3.85
2022-08-31T07:31:48.383Z,3.17
2022-08-31T07:34:16.533Z,2.85
2022-08-31T07:37:02.912Z,3.38
2022-08-31T07:39:48.587Z,3.47
2022-08-31T07:42:18.675Z,2.97
2022-08-31T07:44:53.266Z,3.47
2022-08-31T07:47:22.578Z,3.03
2022-08-31T07:49:52.550Z,2.80
2022-08-31T07:52:23.691Z,2.67
2022-08-31T07:54:52.219Z,2.83
2022-08-31T07:57:20.204Z,2.47
2022-08-31T07:59:47.139Z,2.60
2022-08-31T08:02:17.674Z,3.00
2022-08-31T08:04:44.981Z,2.70
2022-08-31T08:07:12.796Z,2.35
2022-08-31T08:09:39.523Z,2.83
2022-08-31T08:12:07.388Z,2.55
2022-08-31T08:14:36.071Z,2.53
2022-08-31T08:17:04.768Z,2.40
2022-08-31T08:19:33.705Z,2.33
2022-08-31T08:22:02.858Z,2.65
2022-08-31T08:24:31.655Z,2.83
2022-08-31T08:26:59.144Z,2.03
2022-08-31T08:29:27.359Z,2.20
2022-08-31T08:31:54.580Z,2.20
2022-08-31T08:34:32.145Z,2.00
2022-08-31T08:36:59.892Z,2.20
2022-08-31T08:39:27.358Z,2.38
2022-08-31T08:41:57.808Z,2.20
2022-08-31T08:44:28.524Z,2.75
2022-08-31T08:47:01.104Z,2.67
2022-08-31T08:49:40.392Z,2.28
2022-08-31T08:52:27.803Z,2.55
2022-08-31T08:54:56.635Z,2.42
2022-08-31T08:57:39.740Z,2.60
2022-08-31T09:00:24.842Z,2.28
2022-08-31T09:02:57.991Z,2.08
2022-08-31T09:05:47.500Z,2.20
2022-08-31T09:08:23.325Z,2.40
2022-08-31T09:11:06.634Z,2.20
2022-08-31T09:13:53.078Z,2.38
2022-08-31T09:16:26.039Z,2.45
2022-08-31T09:19:02.295Z,2.70
2022-08-31T09:21:39.146Z,2.42
2022-08-31T09:24:21.258Z,2.15
2022-08-31T09:27:04.989Z,2.47
2022-08-31T09:29:34.429Z,2.40
2022-08-31T09:32:09.849Z,2.70
2022-08-31T09:34:40.014Z,2.45
2022-08-31T09:37:26.913Z,2.33
2022-08-31T09:39:54.648Z,2.28
2022-08-31T09:42:31.583Z,2.13
2022-08-31T09:45:18.256Z,2.35
2022-08-31T09:47:56.060Z,2.58
2022-08-31T09:50:32.692Z,2.20
2022-08-31T09:53:38.160Z,2.60
2022-08-31T09:56:13.865Z,3.22
2022-08-31T09:58:43.016Z,2.53
2022-08-31T10:01:29.914Z,2.60
2022-08-31T10:04:18.000Z,2.33
2022-08-31T10:07:14.061Z,2.40
2022-08-31T10:10:28.418Z,2.85
2022-08-31T10:13:22.822Z,3.20
2022-08-31T10:16:11.902Z,2.60
2022-08-31T10:19:14.372Z,2.40
2022-08-31T10:21:54.992Z,2.13
2022-08-31T10:24:33.249Z,2.80
2022-08-31T10:27:16.812Z,2.63
2022-08-31T10:30:07.481Z,2.53
2022-08-31T10:32:40.326Z,2.42
2022-08-31T10:35:20.413Z,2.20
2022-08-31T10:38:24.035Z,2.35
2022-08-31T10:41:11.652Z,2.25
2022-08-31T10:44:04.375Z,2.10
2022-08-31T10:46:34.514Z,2.22
2022-08-31T10:49:06.192Z,2.03
2022-08-31T10:54:29.561Z,1.95
2022-08-31T10:57:05.199Z,1.92
2022-08-31T10:59:37.865Z,1.80
2022-08-31T11:02:07.293Z,2.08
2022-08-31T11:04:52.218Z,2.00
2022-08-31T11:07:33.955Z,2.17
2022-08-31T11:10:20.961Z,2.15
2022-08-31T11:12:55.110Z,1.90
2022-08-31T11:15:44.435Z,2.05
2022-08-31T11:18:13.951Z,1.73
2022-08-31T11:21:17.789Z,1.77
2022-08-31T11:23:58.937Z,2.00
2022-08-31T11:27:03.500Z,2.33
2022-08-31T11:29:34.436Z,2.00
2022-08-31T11:32:22.262Z,2.33
2022-08-31T11:34:55.232Z,2.22
2022-08-31T11:37:52.471Z,2.00
2022-08-31T11:40:43.664Z,1.90
2022-08-31T11:43:29.331Z,1.85
2022-08-31T11:45:56.220Z,1.83
2022-08-31T11:48:54.568Z,1.83
2022-08-31T11:51:44.776Z,1.67
2022-08-31T11:54:26.645Z,1.50
2022-08-31T11:56:56.785Z,1.95
2022-08-31T11:59:40.804Z,2.00
2022-08-31T12:02:19.772Z,1.80
2022-08-31T12:04:47.406Z,1.90
2022-08-31T12:07:26.519Z,1.90
2022-08-31T12:10:15.818Z,1.50
2022-08-31T12:12:55.141Z,1.58
2022-08-31T12:16:00.614Z,1.95
2022-08-31T12:18:47.747Z,1.88
2022-08-31T12:21:48.322Z,1.85
2022-08-31T12:24:27.077Z,1.88
2022-08-31T12:27:35.744Z,2.20
2022-08-31T12:30:28.648Z,1.90
2022-08-31T12:33:01.583Z,2.00
2022-08-31T12:35:31.597Z,2.00
2022-08-31T12:38:10.550Z,1.70
2022-08-31T12:40:51.421Z,1.58
2022-08-31T12:43:21.102Z,1.90
2022-08-31T12:46:12.548Z,2.03
2022-08-31T12:48:53.730Z,2.22
2022-08-31T12:51:32.283Z,1.50
2022-08-31T12:54:13.616Z,2.00
2022-08-31T12:56:52.394Z,1.67
2022-08-31T12:59:57.365Z,2.10
2022-08-31T13:02:24.793Z,1.75
2022-08-31T13:04:51.951Z,1.58
2022-08-31T13:07:32.033Z,1.65
2022-08-31T13:10:12.800Z,1.60
2022-08-31T13:12:40.126Z,2.05
2022-08-31T13:15:20.515Z,1.40
2022-08-31T13:17:47.447Z,1.70
2022-08-31T13:20:19.079Z,1.80
2022-08-31T13:22:48.819Z,1.88
2022-08-31T13:25:36.719Z,1.70
2022-08-31T13:28:03.602Z,1.77
2022-08-31T13:30:34.187Z,1.60
2022-08-31T13:33:12.842Z,1.38
2022-08-31T13:35:49.654Z,1.70
2022-08-31T13:38:17.456Z,1.80
2022-08-31T13:40:51.907Z,1.70
2022-08-31T13:43:27.935Z,1.98
2022-08-31T13:46:00.874Z,1.90
2022-08-31T13:48:34.256Z,2.00
2022-08-31T13:51:13.425Z,2.15
2022-08-31T13:54:05.915Z,2.50
2022-08-31T13:56:51.011Z,2.55
2022-08-31T13:59:23.093Z,2.60
2022-08-31T14:01:59.151Z,2.20
2022-08-31T14:04:44.168Z,2.25
2022-08-31T14:07:17.061Z,1.90
2022-08-31T14:09:45.985Z,1.98
2022-08-31T14:12:31.072Z,2.38
2022-08-31T14:14:59.490Z,1.70
2022-08-31T14:17:26.516Z,1.92
2022-08-31T14:19:53.240Z,1.90
2022-08-31T14:22:35.428Z,2.50
2022-08-31T14:25:03.348Z,1.95
2022-08-31T14:27:30.341Z,2.20
2022-08-31T14:29:58.249Z,1.95
2022-08-31T14:32:25.719Z,1.70
2022-08-31T14:34:53.270Z,2.47
2022-08-31T14:37:20.402Z,1.90
2022-08-31T14:39:55.093Z,2.00
2022-08-31T14:42:31.488Z,1.70
2022-08-31T14:45:00.632Z,2.50
2022-08-31T14:47:29.980Z,1.98
2022-08-31T14:50:05.282Z,2.05
2022-08-31T14:52:37.169Z,2.20
2022-08-31T14:55:09.152Z,2.45
2022-08-31T14:57:38.538Z,2.13
2022-08-31T15:00:06.968Z,2.33
2022-08-31T15:02:34.919Z,1.92
2022-08-31T15:05:06.919Z,2.00
2022-08-31T15:07:37.646Z,1.98
2022-08-31T15:10:07.592Z,1.88
2022-08-31T15:12:35.350Z,1.73
2022-08-31T15:15:02.160Z,1.90
2022-08-31T15:17:33.788Z,1.90
2022-08-31T15:20:03.500Z,1.75
2022-08-31T15:22:31.373Z,1.80
2022-08-31T15:24:58.351Z,2.17
2022-08-31T15:27:28.555Z,1.70
2022-08-31T15:29:57.159Z,1.70
2022-08-31T15:32:23.838Z,1.70
2022-08-31T15:34:57.959Z,1.75
2022-08-31T15:37:32.137Z,2.00
2022-08-31T15:40:01.043Z,1.70
2022-08-31T15:42:29.544Z,2.13
2022-08-31T15:44:56.969Z,1.80
2022-08-31T15:47:49.894Z,1.75
2022-08-31T15:50:19.286Z,1.77
2022-08-31T15:52:51.249Z,1.67
2022-08-31T15:55:26.280Z,2.13
2022-08-31T15:57:58.354Z,1.88
2022-08-31T16:00:27.757Z,1.52
2022-08-31T16:02:57.120Z,1.52
2022-08-31T16:05:28.121Z,1.70
2022-08-31T16:07:55.622Z,2.00
2022-08-31T16:10:23.496Z,1.80
2022-08-31T16:12:51.981Z,1.77
2022-08-31T16:15:22.198Z,1.58
2022-08-31T16:17:51.294Z,1.75
2022-08-31T16:20:18.040Z,1.73
2022-08-31T16:22:45.365Z,1.80
2022-08-31T16:25:14.066Z,1.60
2022-08-31T16:27:43.280Z,1.73
2022-08-31T16:30:11.863Z,1.50
2022-08-31T16:32:38.702Z,1.75
2022-08-31T16:35:06.380Z,1.80
2022-08-31T16:37:33.960Z,1.90
2022-08-31T16:40:00.876Z,1.60
2022-08-31T16:42:28.012Z,1.52
2022-08-31T16:44:59.778Z,1.95
2022-08-31T16:47:29.007Z,1.60
2022-08-31T16:49:55.779Z,2.05
2022-08-31T16:52:26.514Z,1.60
2022-08-31T16:54:55.843Z,1.73
2022-08-31T16:57:27.415Z,1.70
2022-08-31T16:59:55.942Z,2.17
2022-08-31T17:02:24.127Z,2.00
2022-08-31T17:04:53.469Z,1.90
2022-08-31T17:07:23.050Z,1.80
2022-08-31T17:09:50.400Z,1.60
2022-08-31T17:12:20.810Z,1.90
2022-08-31T17:14:52.104Z,2.00
2022-08-31T17:17:21.984Z,1.67
2022-08-31T17:19:49.199Z,1.75
2022-08-31T17:22:24.456Z,1.60
2022-08-31T17:24:56.499Z,2.03
2022-08-31T17:27:24.623Z,1.63
2022-08-31T17:29:52.656Z,1.67
2022-08-31T17:32:22.615Z,1.75
2022-08-31T17:34:51.576Z,1.75
2022-08-31T17:37:26.804Z,1.65
2022-08-31T17:39:55.100Z,1.88
2022-08-31T17:42:26.601Z,1.83
2022-08-31T17:44:53.460Z,2.30
2022-08-31T17:47:22.249Z,1.80
2022-08-31T17:49:52.538Z,1.65
2022-08-31T17:52:23.642Z,1.77
2022-08-31T17:54:51.241Z,1.92
2022-08-31T17:57:22.185Z,1.70
2022-08-31T17:59:49.292Z,1.70
2022-08-31T18:02:26.476Z,1.80
2022-08-31T18:04:55.903Z,1.60
2022-08-31T18:07:23.011Z,1.80
2022-08-31T18:09:49.789Z,1.73
2022-08-31T18:12:17.980Z,1.45
2022-08-31T18:14:44.874Z,1.80
2022-08-31T18:17:16.058Z,2.08
2022-08-31T18:19:45.831Z,1.70
2022-08-31T18:22:14.441Z,1.63
2022-08-31T18:24:42.503Z,1.73
2022-08-31T18:27:11.181Z,1.60
2022-08-31T18:29:39.375Z,1.75
2022-08-31T18:32:07.976Z,1.98
2022-08-31T18:34:44.016Z,2.00
2022-08-31T18:37:12.854Z,1.90
2022-08-31T18:40:00.085Z,1.75
2022-08-31T18:42:45.635Z,2.00
2022-08-31T18:45:15.592Z,1.63
2022-08-31T18:47:42.638Z,1.80
2022-08-31T18:50:09.956Z,1.67
2022-08-31T18:52:40.114Z,1.60
2022-08-31T18:55:07.724Z,1.75
2022-08-31T18:57:48.839Z,1.52
2022-08-31T19:00:17.683Z,1.60
2022-08-31T19:02:47.420Z,1.88
2022-08-31T19:05:15.857Z,1.52
2022-08-31T19:07:43.051Z,1.65
2022-08-31T19:10:13.067Z,1.50
2022-08-31T19:12:42.556Z,2.00
2022-08-31T19:15:11.534Z,1.58
2022-08-31T19:17:42.135Z,1.80
2022-08-31T19:20:10.737Z,1.65
2022-08-31T19:22:38.354Z,1.83
2022-08-31T19:25:07.594Z,1.80
2022-08-31T19:27:35.248Z,1.77
2022-08-31T19:30:05.959Z,1.33
2022-08-31T19:32:33.579Z,1.60
2022-08-31T19:35:00.346Z,1.60
2022-08-31T19:37:27.628Z,1.80
2022-08-31T19:39:54.417Z,1.88
2022-08-31T19:42:39.799Z,1.77
2022-08-31T19:45:24.273Z,1.90
2022-08-31T19:47:51.397Z,1.80
2022-08-31T19:50:18.271Z,1.60
2022-08-31T19:52:45.504Z,1.70
2022-08-31T19:55:12.388Z,1.42
2022-08-31T19:57:39.835Z,1.50
2022-08-31T20:00:10.083Z,1.55
2022-08-31T20:02:37.242Z,1.52
2022-08-31T20:05:06.243Z,1.40
2022-08-31T20:07:35.808Z,1.60
2022-08-31T20:10:04.043Z,1.55
2022-08-31T20:12:30.753Z,1.70
2022-08-31T20:14:57.604Z,1.40
2022-08-31T20:17:24.327Z,1.52
2022-08-31T20:19:54.815Z,1.73
2022-08-31T20:22:23.841Z,1.40
2022-08-31T20:24:55.602Z,1.50
2022-08-31T20:27:22.382Z,1.55
2022-08-31T20:29:49.118Z,1.65
2022-08-31T20:32:15.845Z,1.48
2022-08-31T20:34:43.471Z,1.90
2022-08-31T20:37:10.668Z,1.83
2022-08-31T20:39:39.255Z,1.70
2022-08-31T20:42:07.652Z,1.50
2022-08-31T20:44:36.413Z,1.70
2022-08-31T20:47:25.923Z,1.80
2022-08-31T20:49:58.064Z,1.92
2022-08-31T20:52:31.702Z,1.80
2022-08-31T20:55:02.321Z,1.70
2022-08-31T20:57:33.904Z,1.77
2022-08-31T21:00:04.802Z,1.90
2022-08-31T21:02:31.921Z,1.63
2022-08-31T21:05:10.421Z,1.90
2022-08-31T21:07:42.264Z,1.92
2022-08-31T21:10:15.556Z,2.00
2022-08-31T21:12:42.823Z,1.92
2022-08-31T21:15:10.104Z,1.98
2022-08-31T21:17:36.939Z,2.03
2022-08-31T21:20:05.682Z,2.78
2022-08-31T21:22:34.992Z,2.40
2022-08-31T21:25:04.320Z,2.50
2022-08-31T21:27:31.121Z,2.13
2022-08-31T21:29:58.000Z,2.00
2022-08-31T21:32:24.676Z,2.53
2022-08-31T21:34:56.489Z,2.30
2022-08-31T21:37:23.465Z,2.28
2022-08-31T21:39:53.433Z,2.33
2022-08-31T21:42:22.463Z,2.53
2022-08-31T21:44:49.243Z,2.63
2022-08-31T21:47:15.967Z,2.80
2022-08-31T21:49:44.318Z,2.45
2022-08-31T21:52:12.331Z,2.50
2022-08-31T21:54:44.664Z,2.70
2022-08-31T21:57:12.801Z,2.38
2022-08-31T21:59:39.746Z,2.10
2022-08-31T22:02:11.093Z,1.95
2022-08-31T22:04:41.138Z,1.60
2022-08-31T22:07:08.476Z,1.80
2022-08-31T22:09:36.283Z,1.63
2022-08-31T22:12:06.499Z,2.10
2022-08-31T22:14:38.534Z,1.80
2022-08-31T22:17:06.829Z,1.95
2022-08-31T22:19:37.949Z,1.65
2022-08-31T22:22:12.113Z,2.13
2022-08-31T22:24:41.173Z,1.70
2022-08-31T22:27:09.807Z,1.60
2022-08-31T22:29:38.451Z,2.00
2022-08-31T22:32:09.089Z,1.88
2022-08-31T22:34:38.765Z,1.67
2022-08-31T22:37:06.859Z,1.77
2022-08-31T22:39:33.795Z,1.85
2022-08-31T22:42:04.899Z,1.95
2022-08-31T22:44:34.309Z,1.40
2022-08-31T22:47:03.399Z,1.63
2022-08-31T22:49:30.889Z,1.88
2022-08-31T22:51:57.741Z,1.75
2022-08-31T22:54:24.982Z,1.38
2022-08-31T22:56:52.038Z,1.83
2022-08-31T22:59:26.018Z,1.90
2022-08-31T23:01:59.735Z,1.58
2022-08-31T23:04:28.176Z,1.70
2022-08-31T23:06:57.365Z,1.65
2022-08-31T23:09:27.692Z,1.83
2022-08-31T23:11:56.466Z,1.48
2022-08-31T23:14:23.852Z,1.50
2022-08-31T23:16:57.790Z,1.85
2022-08-31T23:19:30.490Z,1.70
2022-08-31T23:21:58.199Z,1.88
2022-08-31T23:24:29.378Z,1.90
2022-08-31T23:27:01.596Z,2.10
2022-08-31T23:29:32.250Z,2.22
2022-08-31T23:32:00.866Z,2.10
2022-08-31T23:34:27.579Z,2.30
2022-08-31T23:36:55.546Z,2.50
2022-08-31T23:39:24.347Z,2.50
2022-08-31T23:41:53.278Z,2.45
2022-08-31T23:44:21.067Z,2.10
2022-08-31T23:46:49.086Z,3.47
2022-08-31T23:49:19.124Z,2.75
2022-08-31T23:51:46.557Z,3.65
2022-08-31T23:54:15.614Z,3.40
2022-08-31T23:56:45.903Z,3.30
2022-08-31T23:59:17.553Z,3.28
